Lady Victoria — 2DCZ2 — position and weather

sailwx.info

Track history (hours):
 
Tides and Currents Weather Stations Pressure Air Temp Water Temp Dewpoint Dewpoint Depression Visibility Wind Speed Wind Dir Waves Ship Positions

Lady Victoria

Last reported at 2014-Jul-04 15:29 UTC. Time now 2014-Jul-24 21:41 UTC.
Position N 35°53' E 014°31'.
Warning: this ship's position is 20 days out of date.

Length 28 m; draft 2.2 m.

Type: Pleasure craft. MMSI: 235087062.

Date/timePositionNaut miles runAvg speedWind from/ knotsBaromVisibWave heightAir tempDewpointWater temp
2014-Jul-04 15:29N 35°53' E 014°31'0 0.0
2014-Jul-03 17:29N 35°53' E 014°31'0 0.0
2014-Jul-03 16:29N 35°53' E 014°31'0 0.0
2014-Jul-03 15:29N 35°53' E 014°31'0 0.0
2014-Jul-02 17:34N 35°53' E 014°31'1 0.9
2014-Jul-02 16:34N 35°54' E 014°31'1211.6
2014-Jul-02 15:33N 36°03' E 014°22'1312.8
2014-Jul-02 14:34N 36°13' E 014°12'1312.9
2014-Jul-02 13:34N 36°22' E 014°01'1313.1
2014-Jul-02 12:34N 36°31' E 013°49'1413.1
2014-Jul-02 11:29N 36°41' E 013°37'1213.0
2014-Jul-02 10:32N 36°51' E 013°27'  
Track history (hours):
 
Tides and Currents Weather Stations Pressure Air Temp Water Temp Dewpoint Dewpoint Depression Visibility Wind Speed Wind Dir Waves Ship Positions

Lady Victoria

Last reported at 2014-Jul-04 15:29 UTC. Time now 2014-Jul-24 21:41 UTC.
Position N 35°53' E 014°31'.
Warning: this ship's position is 20 days out of date.

Length 28 m; draft 2.2 m.

Type: Pleasure craft. MMSI: 235087062.

Date/timePositionNaut miles runAvg speedWind from/ knotsBaromVisibWave heightAir tempDewpointWater temp
2014-Jul-04 15:29N 35°53' E 014°31'0 0.0
2014-Jul-03 17:29N 35°53' E 014°31'0 0.0
2014-Jul-03 16:29N 35°53' E 014°31'0 0.0
2014-Jul-03 15:29N 35°53' E 014°31'0 0.0
2014-Jul-02 17:34N 35°53' E 014°31'1 0.9
2014-Jul-02 16:34N 35°54' E 014°31'1211.6
2014-Jul-02 15:33N 36°03' E 014°22'1312.8
2014-Jul-02 14:34N 36°13' E 014°12'1312.9
2014-Jul-02 13:34N 36°22' E 014°01'1313.1
2014-Jul-02 12:34N 36°31' E 013°49'1413.1
2014-Jul-02 11:29N 36°41' E 013°37'1213.0
2014-Jul-02 10:32N 36°51' E 013°27'  

Dump ship's entire track history